sensor_id;sensor_type;location;lat;lon;timestamp;P1;durP1;ratioP1;P2;durP2;ratioP2
75963;SDS011;65820;44.726;37.764;2023-03-31T00:00:11;1.55;;;0.50;;
75963;SDS011;65820;44.726;37.764;2023-03-31T00:01:12;1.60;;;0.40;;
75963;SDS011;65820;44.726;37.764;2023-03-31T00:02:14;1.00;;;0.35;;
75963;SDS011;65820;44.726;37.764;2023-03-31T00:03:15;1.38;;;0.32;;
75963;SDS011;65820;44.726;37.764;2023-03-31T00:04:23;1.30;;;0.60;;
75963;SDS011;65820;44.726;37.764;2023-03-31T00:05:25;1.52;;;0.50;;
75963;SDS011;65820;44.726;37.764;2023-03-31T00:06:27;1.27;;;0.50;;
75963;SDS011;65820;44.726;37.764;2023-03-31T00:07:29;1.38;;;0.50;;
75963;SDS011;65820;44.726;37.764;2023-03-31T00:08:30;0.50;;;0.25;;
75963;SDS011;65820;44.726;37.764;2023-03-31T00:09:35;1.33;;;0.43;;
75963;SDS011;65820;44.726;37.764;2023-03-31T00:10:36;1.50;;;0.52;;
75963;SDS011;65820;44.726;37.764;2023-03-31T00:11:40;1.15;;;0.50;;
75963;SDS011;65820;44.726;37.764;2023-03-31T00:12:42;1.25;;;0.50;;
75963;SDS011;65820;44.726;37.764;2023-03-31T00:13:43;1.52;;;0.50;;
75963;SDS011;65820;44.726;37.764;2023-03-31T00:14:44;1.80;;;0.50;;
75963;SDS011;65820;44.726;37.764;2023-03-31T00:15:45;1.08;;;0.40;;
75963;SDS011;65820;44.726;37.764;2023-03-31T00:16:47;0.90;;;0.32;;
75963;SDS011;65820;44.726;37.764;2023-03-31T00:17:48;1.00;;;0.38;;
75963;SDS011;65820;44.726;37.764;2023-03-31T00:18:49;1.67;;;0.50;;
75963;SDS011;65820;44.726;37.764;2023-03-31T00:19:51;0.80;;;0.38;;
75963;SDS011;65820;44.726;37.764;2023-03-31T00:20:53;1.58;;;0.43;;
75963;SDS011;65820;44.726;37.764;2023-03-31T00:21:54;1.00;;;0.50;;
75963;SDS011;65820;44.726;37.764;2023-03-31T00:22:56;1.52;;;0.60;;
75963;SDS011;65820;44.726;37.764;2023-03-31T00:23:58;1.00;;;0.50;;
75963;SDS011;65820;44.726;37.764;2023-03-31T00:25:01;1.55;;;0.60;;
75963;SDS011;65820;44.726;37.764;2023-03-31T00:26:03;1.08;;;0.38;;
75963;SDS011;65820;44.726;37.764;2023-03-31T00:27:04;1.67;;;0.38;;
75963;SDS011;65820;44.726;37.764;2023-03-31T00:28:06;1.65;;;0.60;;
75963;SDS011;65820;44.726;37.764;2023-03-31T00:29:07;1.25;;;0.73;;
75963;SDS011;65820;44.726;37.764;2023-03-31T00:30:12;1.35;;;0.40;;
75963;SDS011;65820;44.726;37.764;2023-03-31T00:31:14;0.90;;;0.50;;
75963;SDS011;65820;44.726;37.764;2023-03-31T00:32:15;1.17;;;0.40;;
75963;SDS011;65820;44.726;37.764;2023-03-31T00:33:17;2.08;;;0.82;;
75963;SDS011;65820;44.726;37.764;2023-03-31T00:34:18;1.88;;;0.60;;
75963;SDS011;65820;44.726;37.764;2023-03-31T00:35:19;1.50;;;0.55;;
75963;SDS011;65820;44.726;37.764;2023-03-31T00:36:21;1.17;;;0.57;;
75963;SDS011;65820;44.726;37.764;2023-03-31T00:37:29;1.67;;;0.50;;
75963;SDS011;65820;44.726;37.764;2023-03-31T00:38:33;2.00;;;0.40;;
75963;SDS011;65820;44.726;37.764;2023-03-31T00:39:35;1.00;;;0.50;;
75963;SDS011;65820;44.726;37.764;2023-03-31T00:40:37;1.13;;;0.52;;
75963;SDS011;65820;44.726;37.764;2023-03-31T00:41:45;1.58;;;0.43;;
75963;SDS011;65820;44.726;37.764;2023-03-31T00:42:47;1.98;;;0.35;;
75963;SDS011;65820;44.726;37.764;2023-03-31T00:46:16;1.48;;;0.60;;
75963;SDS011;65820;44.726;37.764;2023-03-31T00:47:20;1.13;;;0.38;;
75963;SDS011;65820;44.726;37.764;2023-03-31T00:48:22;1.45;;;0.50;;
75963;SDS011;65820;44.726;37.764;2023-03-31T00:49:28;1.38;;;0.40;;
75963;SDS011;65820;44.726;37.764;2023-03-31T00:50:34;0.98;;;0.52;;
75963;SDS011;65820;44.726;37.764;2023-03-31T00:51:41;1.33;;;0.40;;
75963;SDS011;65820;44.726;37.764;2023-03-31T00:52:43;1.17;;;0.40;;
75963;SDS011;65820;44.726;37.764;2023-03-31T00:53:48;1.10;;;0.40;;
75963;SDS011;65820;44.726;37.764;2023-03-31T00:54:58;1.60;;;0.40;;
75963;SDS011;65820;44.726;37.764;2023-03-31T00:56:08;1.85;;;0.40;;
75963;SDS011;65820;44.726;37.764;2023-03-31T00:57:13;0.93;;;0.40;;
75963;SDS011;65820;44.726;37.764;2023-03-31T00:58:15;1.40;;;0.80;;
75963;SDS011;65820;44.726;37.764;2023-03-31T00:59:20;1.02;;;0.40;;
75963;SDS011;65820;44.726;37.764;2023-03-31T01:00:26;1.10;;;0.35;;
75963;SDS011;65820;44.726;37.764;2023-03-31T01:01:30;1.42;;;0.50;;
75963;SDS011;65820;44.726;37.764;2023-03-31T01:02:32;0.95;;;0.40;;
75963;SDS011;65820;44.726;37.764;2023-03-31T01:03:33;1.13;;;0.40;;
75963;SDS011;65820;44.726;37.764;2023-03-31T01:04:37;2.60;;;0.50;;
75963;SDS011;65820;44.726;37.764;2023-03-31T01:05:42;1.20;;;0.47;;
75963;SDS011;65820;44.726;37.764;2023-03-31T01:06:50;0.93;;;0.40;;
75963;SDS011;65820;44.726;37.764;2023-03-31T01:08:00;1.73;;;0.50;;
75963;SDS011;65820;44.726;37.764;2023-03-31T01:09:02;1.65;;;0.50;;
75963;SDS011;65820;44.726;37.764;2023-03-31T01:10:06;1.67;;;0.50;;
75963;SDS011;65820;44.726;37.764;2023-03-31T01:11:09;1.85;;;0.55;;
75963;SDS011;65820;44.726;37.764;2023-03-31T01:12:14;1.40;;;0.50;;
75963;SDS011;65820;44.726;37.764;2023-03-31T01:13:17;0.70;;;0.30;;
75963;SDS011;65820;44.726;37.764;2023-03-31T01:14:21;1.17;;;0.30;;
75963;SDS011;65820;44.726;37.764;2023-03-31T01:15:22;0.70;;;0.30;;
75963;SDS011;65820;44.726;37.764;2023-03-31T01:16:23;1.80;;;0.40;;
75963;SDS011;65820;44.726;37.764;2023-03-31T01:17:25;1.52;;;0.50;;
75963;SDS011;65820;44.726;37.764;2023-03-31T01:18:27;1.80;;;0.50;;
75963;SDS011;65820;44.726;37.764;2023-03-31T01:19:45;1.23;;;0.50;;
75963;SDS011;65820;44.726;37.764;2023-03-31T01:24:06;1.15;;;0.43;;
75963;SDS011;65820;44.726;37.764;2023-03-31T01:26:42;1.05;;;0.40;;
75963;SDS011;65820;44.726;37.764;2023-03-31T01:32:05;1.75;;;0.50;;
75963;SDS011;65820;44.726;37.764;2023-03-31T01:43:40;1.02;;;0.40;;
75963;SDS011;65820;44.726;37.764;2023-03-31T01:44:58;1.48;;;0.70;;
75963;SDS011;65820;44.726;37.764;2023-03-31T01:48:11;1.55;;;0.32;;
75963;SDS011;65820;44.726;37.764;2023-03-31T01:53:28;1.33;;;0.50;;
75963;SDS011;65820;44.726;37.764;2023-03-31T01:55:18;1.52;;;0.60;;
75963;SDS011;65820;44.726;37.764;2023-03-31T01:56:19;1.15;;;0.50;;
75963;SDS011;65820;44.726;37.764;2023-03-31T01:57:35;2.08;;;0.40;;
75963;SDS011;65820;44.726;37.764;2023-03-31T01:58:41;0.75;;;0.47;;
75963;SDS011;65820;44.726;37.764;2023-03-31T02:00:23;2.72;;;0.70;;
75963;SDS011;65820;44.726;37.764;2023-03-31T02:01:21;1.52;;;0.50;;
75963;SDS011;65820;44.726;37.764;2023-03-31T02:02:31;0.98;;;0.47;;
75963;SDS011;65820;44.726;37.764;2023-03-31T02:03:38;1.33;;;0.40;;
75963;SDS011;65820;44.726;37.764;2023-03-31T02:04:46;0.70;;;0.40;;
75963;SDS011;65820;44.726;37.764;2023-03-31T02:05:52;1.23;;;0.40;;
75963;SDS011;65820;44.726;37.764;2023-03-31T02:06:58;1.85;;;0.40;;
75963;SDS011;65820;44.726;37.764;2023-03-31T02:08:08;1.05;;;0.30;;
75963;SDS011;65820;44.726;37.764;2023-03-31T02:09:14;1.45;;;0.43;;
75963;SDS011;65820;44.726;37.764;2023-03-31T02:10:18;1.45;;;0.50;;
75963;SDS011;65820;44.726;37.764;2023-03-31T02:11:21;1.30;;;0.40;;
75963;SDS011;65820;44.726;37.764;2023-03-31T02:12:24;1.50;;;0.40;;
75963;SDS011;65820;44.726;37.764;2023-03-31T02:13:28;1.55;;;0.38;;
75963;SDS011;65820;44.726;37.764;2023-03-31T02:14:34;1.88;;;0.40;;
75963;SDS011;65820;44.726;37.764;2023-03-31T02:15:41;0.70;;;0.25;;
75963;SDS011;65820;44.726;37.764;2023-03-31T02:16:47;1.10;;;0.40;;
75963;SDS011;65820;44.726;37.764;2023-03-31T02:17:53;1.48;;;0.50;;
75963;SDS011;65820;44.726;37.764;2023-03-31T02:18:58;0.57;;;0.30;;
75963;SDS011;65820;44.726;37.764;2023-03-31T02:20:06;1.50;;;0.40;;
75963;SDS011;65820;44.726;37.764;2023-03-31T02:21:12;2.28;;;0.40;;
75963;SDS011;65820;44.726;37.764;2023-03-31T02:22:14;0.65;;;0.32;;
75963;SDS011;65820;44.726;37.764;2023-03-31T02:23:22;1.00;;;0.38;;
75963;SDS011;65820;44.726;37.764;2023-03-31T02:24:26;0.88;;;0.35;;
75963;SDS011;65820;44.726;37.764;2023-03-31T02:25:32;0.77;;;0.28;;
75963;SDS011;65820;44.726;37.764;2023-03-31T02:26:39;1.10;;;0.35;;
75963;SDS011;65820;44.726;37.764;2023-03-31T02:28:11;1.23;;;0.40;;
75963;SDS011;65820;44.726;37.764;2023-03-31T02:29:18;1.13;;;0.40;;
75963;SDS011;65820;44.726;37.764;2023-03-31T02:30:20;1.90;;;0.43;;
75963;SDS011;65820;44.726;37.764;2023-03-31T02:31:26;0.90;;;0.38;;
75963;SDS011;65820;44.726;37.764;2023-03-31T02:32:39;1.15;;;0.30;;
75963;SDS011;65820;44.726;37.764;2023-03-31T02:33:44;1.40;;;0.50;;
75963;SDS011;65820;44.726;37.764;2023-03-31T02:34:45;0.98;;;0.60;;
75963;SDS011;65820;44.726;37.764;2023-03-31T02:35:47;1.05;;;0.30;;
75963;SDS011;65820;44.726;37.764;2023-03-31T02:36:48;2.00;;;0.50;;
75963;SDS011;65820;44.726;37.764;2023-03-31T02:37:50;0.77;;;0.47;;
75963;SDS011;65820;44.726;37.764;2023-03-31T02:38:53;0.60;;;0.25;;
75963;SDS011;65820;44.726;37.764;2023-03-31T02:40:04;0.85;;;0.40;;
75963;SDS011;65820;44.726;37.764;2023-03-31T02:41:10;1.20;;;0.45;;
75963;SDS011;65820;44.726;37.764;2023-03-31T02:42:11;1.08;;;0.40;;
75963;SDS011;65820;44.726;37.764;2023-03-31T02:43:13;1.55;;;0.65;;
75963;SDS011;65820;44.726;37.764;2023-03-31T02:44:14;1.10;;;0.30;;
75963;SDS011;65820;44.726;37.764;2023-03-31T02:46:39;1.50;;;0.40;;
75963;SDS011;65820;44.726;37.764;2023-03-31T02:47:41;1.15;;;0.32;;
75963;SDS011;65820;44.726;37.764;2023-03-31T02:48:44;1.15;;;0.40;;
75963;SDS011;65820;44.726;37.764;2023-03-31T02:49:51;1.10;;;0.50;;
75963;SDS011;65820;44.726;37.764;2023-03-31T03:07:16;0.77;;;0.22;;
75963;SDS011;65820;44.726;37.764;2023-03-31T03:09:57;0.28;;;0.10;;
75963;SDS011;65820;44.726;37.764;2023-03-31T03:11:21;1.52;;;0.50;;
75963;SDS011;65820;44.726;37.764;2023-03-31T03:12:32;0.85;;;0.40;;
75963;SDS011;65820;44.726;37.764;2023-03-31T03:13:48;1.38;;;0.43;;
75963;SDS011;65820;44.726;37.764;2023-03-31T03:15:20;1.08;;;0.38;;
75963;SDS011;65820;44.726;37.764;2023-03-31T03:16:50;1.75;;;0.47;;
75963;SDS011;65820;44.726;37.764;2023-03-31T03:18:04;0.70;;;0.30;;
75963;SDS011;65820;44.726;37.764;2023-03-31T03:19:06;0.75;;;0.40;;
75963;SDS011;65820;44.726;37.764;2023-03-31T03:20:08;1.73;;;0.45;;
75963;SDS011;65820;44.726;37.764;2023-03-31T03:21:14;0.93;;;0.40;;
75963;SDS011;65820;44.726;37.764;2023-03-31T03:22:15;1.40;;;0.57;;
75963;SDS011;65820;44.726;37.764;2023-03-31T03:23:17;1.65;;;0.40;;
75963;SDS011;65820;44.726;37.764;2023-03-31T03:24:19;0.70;;;0.20;;
75963;SDS011;65820;44.726;37.764;2023-03-31T03:25:22;0.80;;;0.32;;
75963;SDS011;65820;44.726;37.764;2023-03-31T03:26:23;2.08;;;0.52;;
75963;SDS011;65820;44.726;37.764;2023-03-31T03:27:27;0.98;;;0.30;;
75963;SDS011;65820;44.726;37.764;2023-03-31T03:28:28;1.63;;;0.50;;
75963;SDS011;65820;44.726;37.764;2023-03-31T03:29:30;1.77;;;0.32;;
75963;SDS011;65820;44.726;37.764;2023-03-31T03:30:31;2.03;;;0.30;;
75963;SDS011;65820;44.726;37.764;2023-03-31T03:31:32;0.82;;;0.40;;
75963;SDS011;65820;44.726;37.764;2023-03-31T03:32:34;1.00;;;0.40;;
75963;SDS011;65820;44.726;37.764;2023-03-31T03:33:35;1.30;;;0.38;;
75963;SDS011;65820;44.726;37.764;2023-03-31T03:34:36;0.50;;;0.40;;
75963;SDS011;65820;44.726;37.764;2023-03-31T03:35:38;0.93;;;0.20;;
75963;SDS011;65820;44.726;37.764;2023-03-31T03:36:39;2.53;;;0.35;;
75963;SDS011;65820;44.726;37.764;2023-03-31T03:37:40;0.55;;;0.30;;
75963;SDS011;65820;44.726;37.764;2023-03-31T03:38:41;1.00;;;0.30;;
75963;SDS011;65820;44.726;37.764;2023-03-31T03:39:43;2.00;;;0.40;;
75963;SDS011;65820;44.726;37.764;2023-03-31T03:40:44;2.22;;;0.60;;
75963;SDS011;65820;44.726;37.764;2023-03-31T03:41:46;1.40;;;0.40;;
75963;SDS011;65820;44.726;37.764;2023-03-31T03:42:47;1.10;;;0.45;;
75963;SDS011;65820;44.726;37.764;2023-03-31T03:43:48;0.40;;;0.20;;
75963;SDS011;65820;44.726;37.764;2023-03-31T03:44:49;1.08;;;0.47;;
75963;SDS011;65820;44.726;37.764;2023-03-31T03:45:51;2.45;;;0.40;;
75963;SDS011;65820;44.726;37.764;2023-03-31T03:46:52;1.65;;;0.40;;
75963;SDS011;65820;44.726;37.764;2023-03-31T03:47:54;1.70;;;0.30;;
75963;SDS011;65820;44.726;37.764;2023-03-31T03:48:55;1.15;;;0.20;;
75963;SDS011;65820;44.726;37.764;2023-03-31T03:49:57;2.30;;;0.38;;
75963;SDS011;65820;44.726;37.764;2023-03-31T03:50:59;1.33;;;0.30;;
75963;SDS011;65820;44.726;37.764;2023-03-31T03:52:01;0.70;;;0.30;;
75963;SDS011;65820;44.726;37.764;2023-03-31T03:53:03;2.45;;;0.30;;
75963;SDS011;65820;44.726;37.764;2023-03-31T03:54:04;0.77;;;0.22;;
75963;SDS011;65820;44.726;37.764;2023-03-31T03:55:06;1.50;;;0.32;;
75963;SDS011;65820;44.726;37.764;2023-03-31T03:56:07;1.40;;;0.40;;
75963;SDS011;65820;44.726;37.764;2023-03-31T03:57:09;0.88;;;0.30;;
75963;SDS011;65820;44.726;37.764;2023-03-31T03:58:11;1.25;;;0.40;;
75963;SDS011;65820;44.726;37.764;2023-03-31T03:59:12;2.50;;;0.40;;
75963;SDS011;65820;44.726;37.764;2023-03-31T04:00:14;1.33;;;0.35;;
75963;SDS011;65820;44.726;37.764;2023-03-31T04:01:16;1.73;;;0.30;;
75963;SDS011;65820;44.726;37.764;2023-03-31T04:02:18;1.23;;;0.30;;
75963;SDS011;65820;44.726;37.764;2023-03-31T04:03:19;2.30;;;0.20;;
75963;SDS011;65820;44.726;37.764;2023-03-31T04:04:21;0.75;;;0.20;;
75963;SDS011;65820;44.726;37.764;2023-03-31T04:05:24;0.57;;;0.32;;
75963;SDS011;65820;44.726;37.764;2023-03-31T04:06:25;1.20;;;0.30;;
75963;SDS011;65820;44.726;37.764;2023-03-31T04:07:27;0.82;;;0.20;;
75963;SDS011;65820;44.726;37.764;2023-03-31T04:08:28;1.60;;;0.60;;
75963;SDS011;65820;44.726;37.764;2023-03-31T04:09:30;3.63;;;0.60;;
75963;SDS011;65820;44.726;37.764;2023-03-31T04:10:31;7.35;;;1.05;;
75963;SDS011;65820;44.726;37.764;2023-03-31T04:11:33;3.08;;;0.95;;
75963;SDS011;65820;44.726;37.764;2023-03-31T04:12:35;7.50;;;1.10;;
75963;SDS011;65820;44.726;37.764;2023-03-31T04:13:36;12.25;;;2.20;;
75963;SDS011;65820;44.726;37.764;2023-03-31T04:14:38;9.90;;;1.80;;
75963;SDS011;65820;44.726;37.764;2023-03-31T04:15:39;5.32;;;0.52;;
75963;SDS011;65820;44.726;37.764;2023-03-31T04:16:41;14.15;;;2.20;;
75963;SDS011;65820;44.726;37.764;2023-03-31T04:17:42;21.13;;;3.50;;
75963;SDS011;65820;44.726;37.764;2023-03-31T04:18:51;25.42;;;4.00;;
75963;SDS011;65820;44.726;37.764;2023-03-31T04:19:56;30.67;;;4.90;;
75963;SDS011;65820;44.726;37.764;2023-03-31T04:21:04;37.95;;;5.85;;
75963;SDS011;65820;44.726;37.764;2023-03-31T04:22:05;30.98;;;6.10;;
75963;SDS011;65820;44.726;37.764;2023-03-31T04:23:11;33.05;;;6.38;;
75963;SDS011;65820;44.726;37.764;2023-03-31T04:24:16;31.40;;;6.40;;
75963;SDS011;65820;44.726;37.764;2023-03-31T04:25:21;42.08;;;5.78;;
75963;SDS011;65820;44.726;37.764;2023-03-31T04:26:23;36.58;;;5.93;;
75963;SDS011;65820;44.726;37.764;2023-03-31T04:27:31;30.00;;;5.50;;
75963;SDS011;65820;44.726;37.764;2023-03-31T04:28:35;33.53;;;6.00;;
75963;SDS011;65820;44.726;37.764;2023-03-31T04:29:37;30.05;;;5.80;;
75963;SDS011;65820;44.726;37.764;2023-03-31T04:30:39;35.53;;;4.63;;
75963;SDS011;65820;44.726;37.764;2023-03-31T04:31:41;30.45;;;5.18;;
75963;SDS011;65820;44.726;37.764;2023-03-31T04:32:42;28.95;;;5.32;;
75963;SDS011;65820;44.726;37.764;2023-03-31T04:33:44;30.17;;;6.05;;
75963;SDS011;65820;44.726;37.764;2023-03-31T04:34:46;24.88;;;5.00;;
75963;SDS011;65820;44.726;37.764;2023-03-31T04:35:50;31.45;;;5.07;;
75963;SDS011;65820;44.726;37.764;2023-03-31T04:36:52;25.70;;;4.45;;
75963;SDS011;65820;44.726;37.764;2023-03-31T04:37:55;29.05;;;4.38;;
75963;SDS011;65820;44.726;37.764;2023-03-31T04:39:00;26.20;;;4.63;;
75963;SDS011;65820;44.726;37.764;2023-03-31T04:40:01;22.48;;;4.65;;
75963;SDS011;65820;44.726;37.764;2023-03-31T04:41:09;23.42;;;4.25;;
75963;SDS011;65820;44.726;37.764;2023-03-31T04:42:11;24.00;;;4.10;;
75963;SDS011;65820;44.726;37.764;2023-03-31T04:43:15;22.23;;;4.00;;
75963;SDS011;65820;44.726;37.764;2023-03-31T04:44:17;23.38;;;4.40;;
75963;SDS011;65820;44.726;37.764;2023-03-31T04:45:19;19.42;;;3.30;;
75963;SDS011;65820;44.726;37.764;2023-03-31T04:46:20;20.00;;;4.45;;
75963;SDS011;65820;44.726;37.764;2023-03-31T04:47:22;22.40;;;3.90;;
75963;SDS011;65820;44.726;37.764;2023-03-31T04:48:23;19.77;;;4.03;;
75963;SDS011;65820;44.726;37.764;2023-03-31T04:49:25;17.90;;;4.05;;
75963;SDS011;65820;44.726;37.764;2023-03-31T04:50:26;20.58;;;3.83;;
75963;SDS011;65820;44.726;37.764;2023-03-31T04:51:28;19.35;;;3.97;;
75963;SDS011;65820;44.726;37.764;2023-03-31T04:52:29;16.95;;;3.50;;
75963;SDS011;65820;44.726;37.764;2023-03-31T04:53:31;18.70;;;3.20;;
75963;SDS011;65820;44.726;37.764;2023-03-31T04:54:33;17.30;;;3.95;;
75963;SDS011;65820;44.726;37.764;2023-03-31T04:55:34;19.80;;;3.85;;
75963;SDS011;65820;44.726;37.764;2023-03-31T04:56:36;19.33;;;4.40;;
75963;SDS011;65820;44.726;37.764;2023-03-31T04:57:37;15.63;;;3.25;;
75963;SDS011;65820;44.726;37.764;2023-03-31T04:58:39;15.45;;;3.05;;
75963;SDS011;65820;44.726;37.764;2023-03-31T04:59:40;18.23;;;3.92;;
75963;SDS011;65820;44.726;37.764;2023-03-31T05:00:42;20.98;;;4.22;;
75963;SDS011;65820;44.726;37.764;2023-03-31T05:01:43;20.88;;;3.58;;
75963;SDS011;65820;44.726;37.764;2023-03-31T05:02:45;20.17;;;3.53;;
75963;SDS011;65820;44.726;37.764;2023-03-31T05:03:46;19.35;;;3.28;;
75963;SDS011;65820;44.726;37.764;2023-03-31T05:04:48;13.27;;;3.22;;
75963;SDS011;65820;44.726;37.764;2023-03-31T05:05:51;17.10;;;3.60;;
75963;SDS011;65820;44.726;37.764;2023-03-31T05:06:52;15.15;;;3.13;;
75963;SDS011;65820;44.726;37.764;2023-03-31T05:07:54;18.67;;;3.15;;
75963;SDS011;65820;44.726;37.764;2023-03-31T05:08:56;19.17;;;3.50;;
75963;SDS011;65820;44.726;37.764;2023-03-31T05:09:57;18.13;;;3.15;;
75963;SDS011;65820;44.726;37.764;2023-03-31T05:10:59;15.27;;;2.97;;
75963;SDS011;65820;44.726;37.764;2023-03-31T05:12:02;13.70;;;2.92;;
75963;SDS011;65820;44.726;37.764;2023-03-31T05:13:04;13.55;;;2.58;;
75963;SDS011;65820;44.726;37.764;2023-03-31T05:14:05;17.70;;;3.70;;
75963;SDS011;65820;44.726;37.764;2023-03-31T05:15:07;15.75;;;3.05;;
75963;SDS011;65820;44.726;37.764;2023-03-31T05:16:10;13.20;;;2.88;;
75963;SDS011;65820;44.726;37.764;2023-03-31T05:17:14;14.55;;;3.00;;
75963;SDS011;65820;44.726;37.764;2023-03-31T05:18:17;12.77;;;2.20;;
75963;SDS011;65820;44.726;37.764;2023-03-31T05:19:19;18.98;;;3.03;;
75963;SDS011;65820;44.726;37.764;2023-03-31T05:20:20;15.20;;;2.45;;
75963;SDS011;65820;44.726;37.764;2023-03-31T05:21:22;13.98;;;2.83;;
75963;SDS011;65820;44.726;37.764;2023-03-31T05:22:24;11.07;;;2.40;;
75963;SDS011;65820;44.726;37.764;2023-03-31T05:23:26;13.13;;;2.60;;
75963;SDS011;65820;44.726;37.764;2023-03-31T05:24:27;12.38;;;2.65;;
75963;SDS011;65820;44.726;37.764;2023-03-31T05:25:30;12.27;;;2.50;;
75963;SDS011;65820;44.726;37.764;2023-03-31T05:26:33;12.07;;;2.70;;
75963;SDS011;65820;44.726;37.764;2023-03-31T05:27:34;12.90;;;2.72;;
75963;SDS011;65820;44.726;37.764;2023-03-31T05:28:36;10.40;;;2.40;;
75963;SDS011;65820;44.726;37.764;2023-03-31T05:29:38;12.45;;;3.20;;
75963;SDS011;65820;44.726;37.764;2023-03-31T05:30:39;10.63;;;2.50;;
75963;SDS011;65820;44.726;37.764;2023-03-31T05:31:41;12.93;;;2.25;;
75963;SDS011;65820;44.726;37.764;2023-03-31T05:32:42;9.65;;;2.45;;
75963;SDS011;65820;44.726;37.764;2023-03-31T05:33:44;11.68;;;2.17;;
75963;SDS011;65820;44.726;37.764;2023-03-31T05:34:46;10.27;;;2.33;;
75963;SDS011;65820;44.726;37.764;2023-03-31T05:35:49;11.32;;;2.33;;
75963;SDS011;65820;44.726;37.764;2023-03-31T05:36:51;12.70;;;2.22;;
75963;SDS011;65820;44.726;37.764;2023-03-31T05:37:53;10.55;;;2.58;;
75963;SDS011;65820;44.726;37.764;2023-03-31T05:38:55;12.25;;;2.55;;
75963;SDS011;65820;44.726;37.764;2023-03-31T05:39:56;12.88;;;2.83;;
75963;SDS011;65820;44.726;37.764;2023-03-31T05:40:58;10.13;;;2.83;;
75963;SDS011;65820;44.726;37.764;2023-03-31T05:42:00;9.57;;;2.20;;
75963;SDS011;65820;44.726;37.764;2023-03-31T05:43:02;11.40;;;2.35;;
75963;SDS011;65820;44.726;37.764;2023-03-31T05:44:03;10.05;;;2.20;;
75963;SDS011;65820;44.726;37.764;2023-03-31T05:45:05;13.23;;;2.40;;
75963;SDS011;65820;44.726;37.764;2023-03-31T05:46:09;11.30;;;2.10;;
75963;SDS011;65820;44.726;37.764;2023-03-31T05:47:10;13.52;;;2.33;;
75963;SDS011;65820;44.726;37.764;2023-03-31T05:48:12;11.23;;;2.50;;
75963;SDS011;65820;44.726;37.764;2023-03-31T05:49:13;9.95;;;2.22;;
75963;SDS011;65820;44.726;37.764;2023-03-31T05:50:16;11.35;;;2.20;;
75963;SDS011;65820;44.726;37.764;2023-03-31T05:51:18;13.93;;;2.25;;
75963;SDS011;65820;44.726;37.764;2023-03-31T05:52:19;11.98;;;2.33;;
75963;SDS011;65820;44.726;37.764;2023-03-31T05:53:20;10.00;;;2.63;;
75963;SDS011;65820;44.726;37.764;2023-03-31T05:54:22;9.20;;;2.25;;
75963;SDS011;65820;44.726;37.764;2023-03-31T05:55:23;12.68;;;2.38;;
75963;SDS011;65820;44.726;37.764;2023-03-31T05:56:25;8.63;;;1.95;;
75963;SDS011;65820;44.726;37.764;2023-03-31T05:57:27;9.30;;;2.03;;
75963;SDS011;65820;44.726;37.764;2023-03-31T05:58:28;8.13;;;2.40;;
75963;SDS011;65820;44.726;37.764;2023-03-31T05:59:30;8.00;;;1.80;;
75963;SDS011;65820;44.726;37.764;2023-03-31T06:00:32;11.77;;;2.28;;
75963;SDS011;65820;44.726;37.764;2023-03-31T06:01:33;11.00;;;2.65;;
75963;SDS011;65820;44.726;37.764;2023-03-31T06:02:34;9.10;;;1.80;;
75963;SDS011;65820;44.726;37.764;2023-03-31T06:03:37;10.38;;;2.00;;
75963;SDS011;65820;44.726;37.764;2023-03-31T06:04:41;9.85;;;2.03;;
75963;SDS011;65820;44.726;37.764;2023-03-31T06:05:47;11.18;;;2.00;;
75963;SDS011;65820;44.726;37.764;2023-03-31T06:06:48;10.65;;;2.35;;
75963;SDS011;65820;44.726;37.764;2023-03-31T06:07:52;8.93;;;1.70;;
75963;SDS011;65820;44.726;37.764;2023-03-31T06:08:53;10.30;;;2.35;;
75963;SDS011;65820;44.726;37.764;2023-03-31T06:09:55;7.55;;;1.85;;
75963;SDS011;65820;44.726;37.764;2023-03-31T06:10:56;8.13;;;1.85;;
75963;SDS011;65820;44.726;37.764;2023-03-31T06:11:58;9.55;;;1.80;;
75963;SDS011;65820;44.726;37.764;2023-03-31T06:12:59;9.23;;;2.25;;
75963;SDS011;65820;44.726;37.764;2023-03-31T06:14:01;8.48;;;2.17;;
75963;SDS011;65820;44.726;37.764;2023-03-31T06:15:02;7.60;;;1.77;;
75963;SDS011;65820;44.726;37.764;2023-03-31T06:16:04;7.18;;;1.58;;
75963;SDS011;65820;44.726;37.764;2023-03-31T06:17:06;9.88;;;2.22;;
75963;SDS011;65820;44.726;37.764;2023-03-31T06:18:07;9.63;;;1.98;;
75963;SDS011;65820;44.726;37.764;2023-03-31T06:19:10;7.93;;;1.55;;
75963;SDS011;65820;44.726;37.764;2023-03-31T06:20:11;10.35;;;2.10;;
75963;SDS011;65820;44.726;37.764;2023-03-31T06:21:14;9.55;;;2.20;;
75963;SDS011;65820;44.726;37.764;2023-03-31T06:22:16;10.50;;;2.00;;
75963;SDS011;65820;44.726;37.764;2023-03-31T06:23:18;8.40;;;1.52;;
75963;SDS011;65820;44.726;37.764;2023-03-31T06:24:19;6.90;;;1.50;;
75963;SDS011;65820;44.726;37.764;2023-03-31T06:25:21;7.35;;;1.50;;
75963;SDS011;65820;44.726;37.764;2023-03-31T06:26:22;7.88;;;1.50;;
75963;SDS011;65820;44.726;37.764;2023-03-31T06:27:24;7.25;;;1.65;;
75963;SDS011;65820;44.726;37.764;2023-03-31T06:28:25;5.85;;;1.52;;
75963;SDS011;65820;44.726;37.764;2023-03-31T06:29:26;10.88;;;2.03;;
75963;SDS011;65820;44.726;37.764;2023-03-31T06:30:28;6.80;;;1.40;;
75963;SDS011;65820;44.726;37.764;2023-03-31T06:31:29;7.35;;;1.40;;
75963;SDS011;65820;44.726;37.764;2023-03-31T06:32:30;7.18;;;2.25;;
75963;SDS011;65820;44.726;37.764;2023-03-31T06:33:32;7.47;;;1.73;;
75963;SDS011;65820;44.726;37.764;2023-03-31T06:34:34;5.45;;;1.50;;
75963;SDS011;65820;44.726;37.764;2023-03-31T06:35:39;5.85;;;1.20;;
75963;SDS011;65820;44.726;37.764;2023-03-31T06:36:41;8.50;;;1.58;;
75963;SDS011;65820;44.726;37.764;2023-03-31T06:37:42;8.40;;;1.85;;
75963;SDS011;65820;44.726;37.764;2023-03-31T06:38:45;5.25;;;1.33;;
75963;SDS011;65820;44.726;37.764;2023-03-31T06:39:47;8.80;;;2.08;;
75963;SDS011;65820;44.726;37.764;2023-03-31T06:40:48;7.57;;;1.60;;
75963;SDS011;65820;44.726;37.764;2023-03-31T06:41:50;6.60;;;1.52;;
75963;SDS011;65820;44.726;37.764;2023-03-31T06:43:00;8.10;;;1.35;;
75963;SDS011;65820;44.726;37.764;2023-03-31T06:44:02;6.75;;;1.60;;
75963;SDS011;65820;44.726;37.764;2023-03-31T06:45:04;5.80;;;1.30;;
75963;SDS011;65820;44.726;37.764;2023-03-31T06:46:06;7.30;;;1.52;;
75963;SDS011;65820;44.726;37.764;2023-03-31T06:47:07;7.50;;;1.50;;
75963;SDS011;65820;44.726;37.764;2023-03-31T06:48:09;6.97;;;1.38;;
75963;SDS011;65820;44.726;37.764;2023-03-31T06:49:10;9.00;;;1.45;;
75963;SDS011;65820;44.726;37.764;2023-03-31T06:50:12;7.15;;;1.70;;
75963;SDS011;65820;44.726;37.764;2023-03-31T06:51:13;5.65;;;1.55;;
75963;SDS011;65820;44.726;37.764;2023-03-31T06:52:15;7.05;;;1.67;;
75963;SDS011;65820;44.726;37.764;2023-03-31T06:53:16;7.00;;;1.30;;
75963;SDS011;65820;44.726;37.764;2023-03-31T06:54:18;6.72;;;1.50;;
75963;SDS011;65820;44.726;37.764;2023-03-31T06:55:19;6.15;;;1.45;;
75963;SDS011;65820;44.726;37.764;2023-03-31T06:56:21;4.70;;;1.40;;
75963;SDS011;65820;44.726;37.764;2023-03-31T06:57:22;5.93;;;1.38;;
75963;SDS011;65820;44.726;37.764;2023-03-31T06:58:23;7.20;;;1.48;;
75963;SDS011;65820;44.726;37.764;2023-03-31T06:59:25;6.55;;;1.42;;
75963;SDS011;65820;44.726;37.764;2023-03-31T07:00:26;4.93;;;1.27;;
75963;SDS011;65820;44.726;37.764;2023-03-31T07:01:27;6.63;;;1.63;;
75963;SDS011;65820;44.726;37.764;2023-03-31T07:02:29;5.88;;;1.40;;